sensor_id;sensor_type;location;lat;lon;timestamp;P1;durP1;ratioP1;P2;durP2;ratioP2
13067;SDS011;6600;51.362;6.686;2022-08-01T00:00:20;3.10;;;2.40;;
13067;SDS011;6600;51.362;6.686;2022-08-01T00:02:45;4.70;;;2.97;;
13067;SDS011;6600;51.362;6.686;2022-08-01T00:05:10;2.50;;;2.07;;
13067;SDS011;6600;51.362;6.686;2022-08-01T00:07:36;2.97;;;2.20;;
13067;SDS011;6600;51.362;6.686;2022-08-01T00:10:06;3.33;;;2.30;;
13067;SDS011;6600;51.362;6.686;2022-08-01T00:12:33;3.53;;;2.00;;
13067;SDS011;6600;51.362;6.686;2022-08-01T00:14:59;3.83;;;2.10;;
13067;SDS011;6600;51.362;6.686;2022-08-01T00:17:24;3.00;;;2.27;;
13067;SDS011;6600;51.362;6.686;2022-08-01T00:19:50;2.33;;;2.03;;
13067;SDS011;6600;51.362;6.686;2022-08-01T00:22:15;2.33;;;1.97;;
13067;SDS011;6600;51.362;6.686;2022-08-01T00:24:41;2.37;;;2.17;;
13067;SDS011;6600;51.362;6.686;2022-08-01T00:27:06;3.30;;;2.20;;
13067;SDS011;6600;51.362;6.686;2022-08-01T00:29:32;2.40;;;2.20;;
13067;SDS011;6600;51.362;6.686;2022-08-01T00:31:57;5.10;;;2.43;;
13067;SDS011;6600;51.362;6.686;2022-08-01T00:34:22;2.70;;;2.20;;
13067;SDS011;6600;51.362;6.686;2022-08-01T00:36:48;3.70;;;2.27;;
13067;SDS011;6600;51.362;6.686;2022-08-01T00:39:13;3.00;;;2.50;;
13067;SDS011;6600;51.362;6.686;2022-08-01T00:41:38;4.90;;;2.50;;
13067;SDS011;6600;51.362;6.686;2022-08-01T00:44:04;2.90;;;2.50;;
13067;SDS011;6600;51.362;6.686;2022-08-01T00:46:30;2.70;;;2.50;;
13067;SDS011;6600;51.362;6.686;2022-08-01T00:48:56;3.33;;;2.90;;
13067;SDS011;6600;51.362;6.686;2022-08-01T00:51:22;3.20;;;2.43;;
13067;SDS011;6600;51.362;6.686;2022-08-01T00:53:48;3.70;;;3.00;;
13067;SDS011;6600;51.362;6.686;2022-08-01T00:56:16;3.27;;;2.53;;
13067;SDS011;6600;51.362;6.686;2022-08-01T00:58:42;3.53;;;2.53;;
13067;SDS011;6600;51.362;6.686;2022-08-01T01:01:08;3.57;;;2.57;;
13067;SDS011;6600;51.362;6.686;2022-08-01T01:03:34;3.10;;;2.47;;
13067;SDS011;6600;51.362;6.686;2022-08-01T01:14:37;4.00;;;2.97;;
13067;SDS011;6600;51.362;6.686;2022-08-01T01:17:11;3.67;;;2.77;;
13067;SDS011;6600;51.362;6.686;2022-08-01T01:19:39;4.90;;;2.80;;
13067;SDS011;6600;51.362;6.686;2022-08-01T01:25:02;4.10;;;2.93;;
13067;SDS011;6600;51.362;6.686;2022-08-01T01:27:51;3.40;;;2.40;;
13067;SDS011;6600;51.362;6.686;2022-08-01T01:30:28;3.50;;;2.47;;
13067;SDS011;6600;51.362;6.686;2022-08-01T01:32:54;4.67;;;3.00;;
13067;SDS011;6600;51.362;6.686;2022-08-01T01:35:27;4.67;;;3.03;;
13067;SDS011;6600;51.362;6.686;2022-08-01T01:37:57;2.50;;;2.27;;
13067;SDS011;6600;51.362;6.686;2022-08-01T01:40:26;4.40;;;2.70;;
13067;SDS011;6600;51.362;6.686;2022-08-01T01:42:54;4.83;;;2.47;;
13067;SDS011;6600;51.362;6.686;2022-08-01T01:45:22;4.00;;;2.70;;
13067;SDS011;6600;51.362;6.686;2022-08-01T01:47:48;4.20;;;3.10;;
13067;SDS011;6600;51.362;6.686;2022-08-01T01:50:15;4.77;;;2.90;;
13067;SDS011;6600;51.362;6.686;2022-08-01T01:52:44;3.87;;;2.93;;
13067;SDS011;6600;51.362;6.686;2022-08-01T01:55:11;3.47;;;2.80;;
13067;SDS011;6600;51.362;6.686;2022-08-01T01:57:39;3.73;;;3.33;;
13067;SDS011;6600;51.362;6.686;2022-08-01T02:00:06;4.67;;;3.03;;
13067;SDS011;6600;51.362;6.686;2022-08-01T02:02:34;4.37;;;3.23;;
13067;SDS011;6600;51.362;6.686;2022-08-01T02:05:01;5.20;;;2.97;;
13067;SDS011;6600;51.362;6.686;2022-08-01T02:07:27;3.93;;;3.07;;
13067;SDS011;6600;51.362;6.686;2022-08-01T02:09:54;4.10;;;2.87;;
13067;SDS011;6600;51.362;6.686;2022-08-01T02:12:21;4.80;;;2.83;;
13067;SDS011;6600;51.362;6.686;2022-08-01T02:14:47;4.47;;;2.90;;
13067;SDS011;6600;51.362;6.686;2022-08-01T02:17:16;5.67;;;2.80;;
13067;SDS011;6600;51.362;6.686;2022-08-01T02:19:43;4.30;;;3.17;;
13067;SDS011;6600;51.362;6.686;2022-08-01T02:22:10;4.97;;;2.70;;
13067;SDS011;6600;51.362;6.686;2022-08-01T02:30:20;4.80;;;2.83;;
13067;SDS011;6600;51.362;6.686;2022-08-01T02:32:51;5.70;;;3.10;;
13067;SDS011;6600;51.362;6.686;2022-08-01T02:35:27;3.63;;;2.97;;
13067;SDS011;6600;51.362;6.686;2022-08-01T02:37:56;3.77;;;2.80;;
13067;SDS011;6600;51.362;6.686;2022-08-01T02:40:23;5.10;;;3.27;;
13067;SDS011;6600;51.362;6.686;2022-08-01T02:42:51;5.60;;;3.17;;
13067;SDS011;6600;51.362;6.686;2022-08-01T02:45:20;5.43;;;2.77;;
13067;SDS011;6600;51.362;6.686;2022-08-01T02:47:49;4.20;;;3.33;;
13067;SDS011;6600;51.362;6.686;2022-08-01T02:50:16;4.50;;;2.97;;
13067;SDS011;6600;51.362;6.686;2022-08-01T02:52:43;4.33;;;3.13;;
13067;SDS011;6600;51.362;6.686;2022-08-01T02:55:13;3.53;;;3.07;;
13067;SDS011;6600;51.362;6.686;2022-08-01T02:57:40;4.40;;;3.40;;
13067;SDS011;6600;51.362;6.686;2022-08-01T03:00:09;5.63;;;3.53;;
13067;SDS011;6600;51.362;6.686;2022-08-01T03:02:36;6.03;;;3.17;;
13067;SDS011;6600;51.362;6.686;2022-08-01T03:05:03;4.43;;;3.37;;
13067;SDS011;6600;51.362;6.686;2022-08-01T03:07:29;3.53;;;2.73;;
13067;SDS011;6600;51.362;6.686;2022-08-01T03:09:56;6.07;;;3.40;;
13067;SDS011;6600;51.362;6.686;2022-08-01T03:12:24;7.07;;;4.10;;
13067;SDS011;6600;51.362;6.686;2022-08-01T03:14:53;6.30;;;4.20;;
13067;SDS011;6600;51.362;6.686;2022-08-01T03:17:22;5.83;;;3.77;;
13067;SDS011;6600;51.362;6.686;2022-08-01T03:19:49;5.90;;;3.37;;
13067;SDS011;6600;51.362;6.686;2022-08-01T03:22:16;7.07;;;3.90;;
13067;SDS011;6600;51.362;6.686;2022-08-01T03:24:42;5.67;;;4.23;;
13067;SDS011;6600;51.362;6.686;2022-08-01T03:27:10;6.70;;;4.07;;
13067;SDS011;6600;51.362;6.686;2022-08-01T03:29:36;6.40;;;4.20;;
13067;SDS011;6600;51.362;6.686;2022-08-01T03:32:04;6.17;;;4.43;;
13067;SDS011;6600;51.362;6.686;2022-08-01T03:34:30;6.10;;;4.77;;
13067;SDS011;6600;51.362;6.686;2022-08-01T03:37:12;8.57;;;4.63;;
13067;SDS011;6600;51.362;6.686;2022-08-01T03:39:49;8.17;;;4.77;;
13067;SDS011;6600;51.362;6.686;2022-08-01T03:42:20;7.10;;;4.37;;
13067;SDS011;6600;51.362;6.686;2022-08-01T03:45:03;4.83;;;4.10;;
13067;SDS011;6600;51.362;6.686;2022-08-01T03:47:34;5.37;;;3.67;;
13067;SDS011;6600;51.362;6.686;2022-08-01T03:50:04;6.30;;;4.10;;
13067;SDS011;6600;51.362;6.686;2022-08-01T03:52:32;8.43;;;4.77;;
13067;SDS011;6600;51.362;6.686;2022-08-01T03:55:02;6.43;;;4.53;;
13067;SDS011;6600;51.362;6.686;2022-08-01T03:57:32;6.97;;;4.47;;
13067;SDS011;6600;51.362;6.686;2022-08-01T03:59:58;7.03;;;4.57;;
13067;SDS011;6600;51.362;6.686;2022-08-01T04:02:25;7.40;;;4.67;;
13067;SDS011;6600;51.362;6.686;2022-08-01T04:04:52;6.43;;;4.43;;
13067;SDS011;6600;51.362;6.686;2022-08-01T04:07:25;6.43;;;4.33;;
13067;SDS011;6600;51.362;6.686;2022-08-01T04:09:55;9.83;;;4.60;;
13067;SDS011;6600;51.362;6.686;2022-08-01T04:12:21;6.93;;;4.07;;
13067;SDS011;6600;51.362;6.686;2022-08-01T04:14:47;8.57;;;4.40;;
13067;SDS011;6600;51.362;6.686;2022-08-01T04:17:13;6.70;;;4.53;;
13067;SDS011;6600;51.362;6.686;2022-08-01T04:19:39;7.70;;;4.50;;
13067;SDS011;6600;51.362;6.686;2022-08-01T04:22:05;6.67;;;4.37;;
13067;SDS011;6600;51.362;6.686;2022-08-01T04:24:31;6.27;;;4.10;;
13067;SDS011;6600;51.362;6.686;2022-08-01T04:26:58;8.57;;;5.20;;
13067;SDS011;6600;51.362;6.686;2022-08-01T04:29:25;7.03;;;4.67;;
13067;SDS011;6600;51.362;6.686;2022-08-01T04:31:52;6.93;;;4.70;;
13067;SDS011;6600;51.362;6.686;2022-08-01T04:34:21;7.43;;;4.70;;
13067;SDS011;6600;51.362;6.686;2022-08-01T04:36:49;6.30;;;4.20;;
13067;SDS011;6600;51.362;6.686;2022-08-01T04:39:17;6.47;;;4.13;;
13067;SDS011;6600;51.362;6.686;2022-08-01T04:41:45;8.10;;;5.33;;
13067;SDS011;6600;51.362;6.686;2022-08-01T04:44:12;6.23;;;5.07;;
13067;SDS011;6600;51.362;6.686;2022-08-01T04:46:38;7.30;;;4.87;;
13067;SDS011;6600;51.362;6.686;2022-08-01T04:49:05;8.67;;;5.00;;
13067;SDS011;6600;51.362;6.686;2022-08-01T04:51:33;9.40;;;5.40;;
13067;SDS011;6600;51.362;6.686;2022-08-01T04:53:59;7.83;;;4.83;;
13067;SDS011;6600;51.362;6.686;2022-08-01T04:56:25;6.97;;;4.13;;
13067;SDS011;6600;51.362;6.686;2022-08-01T04:58:51;7.47;;;4.90;;
13067;SDS011;6600;51.362;6.686;2022-08-01T05:01:37;6.37;;;4.10;;
13067;SDS011;6600;51.362;6.686;2022-08-01T05:04:02;6.10;;;4.33;;
13067;SDS011;6600;51.362;6.686;2022-08-01T05:06:27;6.97;;;4.23;;
13067;SDS011;6600;51.362;6.686;2022-08-01T05:08:53;8.67;;;4.97;;
13067;SDS011;6600;51.362;6.686;2022-08-01T05:11:18;7.70;;;5.53;;
13067;SDS011;6600;51.362;6.686;2022-08-01T05:13:44;9.33;;;5.40;;
13067;SDS011;6600;51.362;6.686;2022-08-01T05:16:09;7.17;;;5.23;;
13067;SDS011;6600;51.362;6.686;2022-08-01T05:18:34;7.67;;;4.67;;
13067;SDS011;6600;51.362;6.686;2022-08-01T05:21:00;7.17;;;4.37;;
13067;SDS011;6600;51.362;6.686;2022-08-01T05:23:26;7.50;;;4.80;;
13067;SDS011;6600;51.362;6.686;2022-08-01T05:25:52;5.97;;;4.47;;
13067;SDS011;6600;51.362;6.686;2022-08-01T05:28:17;7.13;;;4.10;;
13067;SDS011;6600;51.362;6.686;2022-08-01T05:30:43;7.10;;;4.47;;
13067;SDS011;6600;51.362;6.686;2022-08-01T05:33:08;7.27;;;4.50;;
13067;SDS011;6600;51.362;6.686;2022-08-01T05:35:33;6.97;;;4.53;;
13067;SDS011;6600;51.362;6.686;2022-08-01T05:37:59;8.63;;;4.40;;
13067;SDS011;6600;51.362;6.686;2022-08-01T05:40:24;5.60;;;3.50;;
13067;SDS011;6600;51.362;6.686;2022-08-01T05:42:49;6.30;;;3.97;;
13067;SDS011;6600;51.362;6.686;2022-08-01T05:45:15;5.80;;;3.60;;
13067;SDS011;6600;51.362;6.686;2022-08-01T05:47:40;6.63;;;3.97;;
13067;SDS011;6600;51.362;6.686;2022-08-01T05:50:05;7.33;;;4.50;;
13067;SDS011;6600;51.362;6.686;2022-08-01T05:52:32;5.57;;;3.80;;
13067;SDS011;6600;51.362;6.686;2022-08-01T05:54:57;5.40;;;4.17;;
13067;SDS011;6600;51.362;6.686;2022-08-01T05:57:22;6.70;;;3.57;;
13067;SDS011;6600;51.362;6.686;2022-08-01T05:59:48;4.57;;;3.27;;
13067;SDS011;6600;51.362;6.686;2022-08-01T06:02:13;3.73;;;2.70;;
13067;SDS011;6600;51.362;6.686;2022-08-01T06:04:38;2.63;;;2.40;;
13067;SDS011;6600;51.362;6.686;2022-08-01T06:07:04;3.67;;;2.43;;
13067;SDS011;6600;51.362;6.686;2022-08-01T06:09:29;3.20;;;2.37;;
13067;SDS011;6600;51.362;6.686;2022-08-01T06:11:55;3.87;;;2.50;;
13067;SDS011;6600;51.362;6.686;2022-08-01T06:14:21;3.83;;;2.33;;
13067;SDS011;6600;51.362;6.686;2022-08-01T06:16:46;3.37;;;2.40;;
13067;SDS011;6600;51.362;6.686;2022-08-01T06:19:12;2.57;;;2.27;;
13067;SDS011;6600;51.362;6.686;2022-08-01T06:21:37;2.57;;;1.77;;
13067;SDS011;6600;51.362;6.686;2022-08-01T06:24:02;2.40;;;2.20;;
13067;SDS011;6600;51.362;6.686;2022-08-01T06:26:28;4.30;;;2.33;;
13067;SDS011;6600;51.362;6.686;2022-08-01T06:28:54;3.10;;;2.40;;
13067;SDS011;6600;51.362;6.686;2022-08-01T06:31:19;2.63;;;2.00;;
13067;SDS011;6600;51.362;6.686;2022-08-01T06:33:44;2.57;;;1.73;;
13067;SDS011;6600;51.362;6.686;2022-08-01T06:36:10;1.60;;;1.43;;
13067;SDS011;6600;51.362;6.686;2022-08-01T06:38:35;2.37;;;1.93;;
13067;SDS011;6600;51.362;6.686;2022-08-01T06:41:00;2.40;;;1.60;;
13067;SDS011;6600;51.362;6.686;2022-08-01T06:43:26;2.20;;;1.90;;
13067;SDS011;6600;51.362;6.686;2022-08-01T06:45:51;1.90;;;1.73;;
13067;SDS011;6600;51.362;6.686;2022-08-01T06:48:16;3.17;;;1.80;;
13067;SDS011;6600;51.362;6.686;2022-08-01T06:50:42;2.97;;;2.17;;
13067;SDS011;6600;51.362;6.686;2022-08-01T06:53:07;2.03;;;1.83;;
13067;SDS011;6600;51.362;6.686;2022-08-01T06:55:33;3.10;;;1.83;;
13067;SDS011;6600;51.362;6.686;2022-08-01T06:57:58;1.73;;;1.60;;
13067;SDS011;6600;51.362;6.686;2022-08-01T07:00:24;2.13;;;1.93;;
13067;SDS011;6600;51.362;6.686;2022-08-01T07:02:51;2.10;;;1.90;;
13067;SDS011;6600;51.362;6.686;2022-08-01T07:05:21;1.70;;;1.60;;
13067;SDS011;6600;51.362;6.686;2022-08-01T07:07:46;2.43;;;1.63;;
13067;SDS011;6600;51.362;6.686;2022-08-01T07:10:12;2.57;;;2.00;;
13067;SDS011;6600;51.362;6.686;2022-08-01T07:12:37;2.07;;;1.87;;
13067;SDS011;6600;51.362;6.686;2022-08-01T07:15:07;1.90;;;1.70;;
13067;SDS011;6600;51.362;6.686;2022-08-01T07:17:39;2.40;;;1.40;;
13067;SDS011;6600;51.362;6.686;2022-08-01T07:20:07;2.17;;;1.57;;
13067;SDS011;6600;51.362;6.686;2022-08-01T07:22:33;2.07;;;1.67;;
13067;SDS011;6600;51.362;6.686;2022-08-01T07:24:59;3.70;;;2.10;;
13067;SDS011;6600;51.362;6.686;2022-08-01T07:27:24;2.67;;;1.73;;
13067;SDS011;6600;51.362;6.686;2022-08-01T07:29:50;1.43;;;1.33;;
13067;SDS011;6600;51.362;6.686;2022-08-01T07:32:15;1.33;;;1.07;;
13067;SDS011;6600;51.362;6.686;2022-08-01T07:34:40;1.67;;;1.30;;
13067;SDS011;6600;51.362;6.686;2022-08-01T07:37:06;1.73;;;1.27;;
13067;SDS011;6600;51.362;6.686;2022-08-01T07:39:31;2.40;;;1.50;;
13067;SDS011;6600;51.362;6.686;2022-08-01T07:41:56;2.70;;;1.87;;
13067;SDS011;6600;51.362;6.686;2022-08-01T07:44:22;2.60;;;1.90;;
13067;SDS011;6600;51.362;6.686;2022-08-01T07:46:48;1.93;;;1.83;;
13067;SDS011;6600;51.362;6.686;2022-08-01T07:49:13;1.67;;;1.57;;
13067;SDS011;6600;51.362;6.686;2022-08-01T07:51:39;1.50;;;1.40;;
13067;SDS011;6600;51.362;6.686;2022-08-01T07:54:04;2.43;;;1.67;;
13067;SDS011;6600;51.362;6.686;2022-08-01T07:56:30;1.97;;;1.57;;
13067;SDS011;6600;51.362;6.686;2022-08-01T07:58:55;2.37;;;2.03;;
13067;SDS011;6600;51.362;6.686;2022-08-01T08:01:21;3.40;;;2.37;;
13067;SDS011;6600;51.362;6.686;2022-08-01T08:03:46;3.27;;;2.13;;
13067;SDS011;6600;51.362;6.686;2022-08-01T08:06:12;3.87;;;2.67;;
13067;SDS011;6600;51.362;6.686;2022-08-01T08:08:37;1.73;;;1.63;;
13067;SDS011;6600;51.362;6.686;2022-08-01T08:11:03;4.33;;;1.90;;
13067;SDS011;6600;51.362;6.686;2022-08-01T08:13:28;3.20;;;1.37;;
13067;SDS011;6600;51.362;6.686;2022-08-01T08:15:53;1.57;;;1.47;;
13067;SDS011;6600;51.362;6.686;2022-08-01T08:18:19;3.20;;;2.10;;
13067;SDS011;6600;51.362;6.686;2022-08-01T08:20:44;2.40;;;1.90;;
13067;SDS011;6600;51.362;6.686;2022-08-01T08:23:10;3.30;;;1.67;;
13067;SDS011;6600;51.362;6.686;2022-08-01T08:25:54;2.83;;;1.53;;
13067;SDS011;6600;51.362;6.686;2022-08-01T08:28:19;1.57;;;1.47;;
13067;SDS011;6600;51.362;6.686;2022-08-01T08:30:45;1.77;;;1.67;;
13067;SDS011;6600;51.362;6.686;2022-08-01T08:33:10;2.10;;;1.60;;
13067;SDS011;6600;51.362;6.686;2022-08-01T08:35:36;1.60;;;1.50;;
13067;SDS011;6600;51.362;6.686;2022-08-01T08:38:04;2.53;;;1.40;;
13067;SDS011;6600;51.362;6.686;2022-08-01T08:40:29;1.93;;;1.73;;
13067;SDS011;6600;51.362;6.686;2022-08-01T08:42:57;1.97;;;1.77;;
13067;SDS011;6600;51.362;6.686;2022-08-01T08:45:25;1.50;;;1.40;;
13067;SDS011;6600;51.362;6.686;2022-08-01T08:47:51;1.83;;;1.40;;
13067;SDS011;6600;51.362;6.686;2022-08-01T08:50:18;1.43;;;1.23;;
13067;SDS011;6600;51.362;6.686;2022-08-01T08:52:44;1.30;;;1.20;;
13067;SDS011;6600;51.362;6.686;2022-08-01T08:55:13;1.17;;;1.07;;
13067;SDS011;6600;51.362;6.686;2022-08-01T08:57:41;1.10;;;1.00;;
13067;SDS011;6600;51.362;6.686;2022-08-01T09:00:09;1.60;;;1.20;;
13067;SDS011;6600;51.362;6.686;2022-08-01T09:02:36;1.50;;;0.93;;
13067;SDS011;6600;51.362;6.686;2022-08-01T09:05:09;1.30;;;1.20;;
13067;SDS011;6600;51.362;6.686;2022-08-01T09:07:35;2.33;;;1.47;;
13067;SDS011;6600;51.362;6.686;2022-08-01T09:10:00;1.93;;;1.37;;
13067;SDS011;6600;51.362;6.686;2022-08-01T09:12:26;2.23;;;1.23;;
13067;SDS011;6600;51.362;6.686;2022-08-01T09:14:51;1.20;;;1.10;;
13067;SDS011;6600;51.362;6.686;2022-08-01T09:17:18;2.70;;;1.57;;
13067;SDS011;6600;51.362;6.686;2022-08-01T09:19:45;1.57;;;1.43;;
13067;SDS011;6600;51.362;6.686;2022-08-01T09:22:14;1.40;;;1.30;;
13067;SDS011;6600;51.362;6.686;2022-08-01T09:27:31;1.77;;;1.50;;
13067;SDS011;6600;51.362;6.686;2022-08-01T09:32:59;1.73;;;1.13;;
13067;SDS011;6600;51.362;6.686;2022-08-01T09:35:29;2.00;;;1.20;;
13067;SDS011;6600;51.362;6.686;2022-08-01T09:38:11;1.17;;;1.10;;
13067;SDS011;6600;51.362;6.686;2022-08-01T09:43:23;1.37;;;1.20;;
13067;SDS011;6600;51.362;6.686;2022-08-01T09:45:51;1.37;;;1.27;;
13067;SDS011;6600;51.362;6.686;2022-08-01T09:48:17;1.40;;;1.30;;
13067;SDS011;6600;51.362;6.686;2022-08-01T09:50:47;1.00;;;1.00;;
13067;SDS011;6600;51.362;6.686;2022-08-01T09:53:14;1.50;;;1.40;;
13067;SDS011;6600;51.362;6.686;2022-08-01T09:55:41;1.20;;;1.10;;
13067;SDS011;6600;51.362;6.686;2022-08-01T09:58:07;1.10;;;1.00;;
13067;SDS011;6600;51.362;6.686;2022-08-01T10:00:33;0.93;;;0.93;;
13067;SDS011;6600;51.362;6.686;2022-08-01T10:03:17;1.40;;;1.30;;
13067;SDS011;6600;51.362;6.686;2022-08-01T10:05:44;0.90;;;0.90;;
13067;SDS011;6600;51.362;6.686;2022-08-01T10:08:09;0.90;;;0.90;;
13067;SDS011;6600;51.362;6.686;2022-08-01T10:10:37;0.83;;;0.83;;
13067;SDS011;6600;51.362;6.686;2022-08-01T10:13:03;0.80;;;0.80;;
13067;SDS011;6600;51.362;6.686;2022-08-01T10:15:29;0.80;;;0.80;;
13067;SDS011;6600;51.362;6.686;2022-08-01T10:17:56;1.20;;;1.10;;
13067;SDS011;6600;51.362;6.686;2022-08-01T10:20:24;1.17;;;1.10;;
13067;SDS011;6600;51.362;6.686;2022-08-01T10:22:52;1.20;;;1.10;;
13067;SDS011;6600;51.362;6.686;2022-08-01T10:25:19;1.30;;;1.20;;
13067;SDS011;6600;51.362;6.686;2022-08-01T10:27:45;1.20;;;1.10;;
13067;SDS011;6600;51.362;6.686;2022-08-01T10:30:15;0.80;;;0.80;;
13067;SDS011;6600;51.362;6.686;2022-08-01T10:32:40;1.07;;;0.90;;
13067;SDS011;6600;51.362;6.686;2022-08-01T10:35:07;0.60;;;0.60;;
13067;SDS011;6600;51.362;6.686;2022-08-01T10:37:34;0.80;;;0.80;;
13067;SDS011;6600;51.362;6.686;2022-08-01T10:40:03;0.67;;;0.67;;
13067;SDS011;6600;51.362;6.686;2022-08-01T10:42:30;1.00;;;0.77;;
13067;SDS011;6600;51.362;6.686;2022-08-01T10:44:58;0.70;;;0.70;;
13067;SDS011;6600;51.362;6.686;2022-08-01T10:47:25;0.80;;;0.80;;
13067;SDS011;6600;51.362;6.686;2022-08-01T10:52:29;0.73;;;0.73;;
13067;SDS011;6600;51.362;6.686;2022-08-01T10:55:04;0.70;;;0.70;;
13067;SDS011;6600;51.362;6.686;2022-08-01T10:57:41;1.07;;;0.97;;
13067;SDS011;6600;51.362;6.686;2022-08-01T11:00:16;1.13;;;1.03;;
13067;SDS011;6600;51.362;6.686;2022-08-01T11:02:44;0.80;;;0.80;;
13067;SDS011;6600;51.362;6.686;2022-08-01T11:05:25;0.80;;;0.80;;
13067;SDS011;6600;51.362;6.686;2022-08-01T11:07:52;1.00;;;1.00;;
13067;SDS011;6600;51.362;6.686;2022-08-01T11:10:23;0.80;;;0.80;;
13067;SDS011;6600;51.362;6.686;2022-08-01T11:13:07;0.70;;;0.70;;
13067;SDS011;6600;51.362;6.686;2022-08-01T11:15:36;0.47;;;0.47;;
13067;SDS011;6600;51.362;6.686;2022-08-01T11:18:03;0.87;;;0.73;;
13067;SDS011;6600;51.362;6.686;2022-08-01T11:20:58;0.40;;;0.40;;
13067;SDS011;6600;51.362;6.686;2022-08-01T11:23:26;0.50;;;0.50;;
13067;SDS011;6600;51.362;6.686;2022-08-01T11:30:51;0.70;;;0.70;;
13067;SDS011;6600;51.362;6.686;2022-08-01T11:38:42;0.80;;;0.60;;
13067;SDS011;6600;51.362;6.686;2022-08-01T11:41:13;0.60;;;0.60;;
13067;SDS011;6600;51.362;6.686;2022-08-01T11:43:54;1.77;;;0.70;;
13067;SDS011;6600;51.362;6.686;2022-08-01T11:54:52;1.10;;;1.10;;
13067;SDS011;6600;51.362;6.686;2022-08-01T11:57:28;0.70;;;0.70;;
13067;SDS011;6600;51.362;6.686;2022-08-01T11:59:58;0.40;;;0.40;;
13067;SDS011;6600;51.362;6.686;2022-08-01T12:02:28;0.60;;;0.60;;
13067;SDS011;6600;51.362;6.686;2022-08-01T12:04:56;0.60;;;0.60;;
13067;SDS011;6600;51.362;6.686;2022-08-01T12:07:22;0.53;;;0.53;;
13067;SDS011;6600;51.362;6.686;2022-08-01T12:09:48;0.60;;;0.60;;
13067;SDS011;6600;51.362;6.686;2022-08-01T12:12:21;0.80;;;0.80;;
13067;SDS011;6600;51.362;6.686;2022-08-01T12:14:52;0.73;;;0.60;;
13067;SDS011;6600;51.362;6.686;2022-08-01T12:17:35;1.47;;;0.80;;
13067;SDS011;6600;51.362;6.686;2022-08-01T12:20:03;0.87;;;0.70;;
13067;SDS011;6600;51.362;6.686;2022-08-01T12:22:30;0.83;;;0.60;;
13067;SDS011;6600;51.362;6.686;2022-08-01T12:24:56;1.00;;;0.50;;
13067;SDS011;6600;51.362;6.686;2022-08-01T12:27:30;0.77;;;0.77;;
13067;SDS011;6600;51.362;6.686;2022-08-01T12:29:56;0.80;;;0.80;;
13067;SDS011;6600;51.362;6.686;2022-08-01T12:34:49;0.70;;;0.70;;
13067;SDS011;6600;51.362;6.686;2022-08-01T12:37:15;0.90;;;0.77;;
13067;SDS011;6600;51.362;6.686;2022-08-01T12:39:41;0.60;;;0.60;;
13067;SDS011;6600;51.362;6.686;2022-08-01T12:42:07;0.60;;;0.60;;
13067;SDS011;6600;51.362;6.686;2022-08-01T12:44:35;0.80;;;0.70;;
13067;SDS011;6600;51.362;6.686;2022-08-01T12:47:01;0.70;;;0.70;;
13067;SDS011;6600;51.362;6.686;2022-08-01T12:49:29;1.23;;;0.70;;
13067;SDS011;6600;51.362;6.686;2022-08-01T12:51:56;0.60;;;0.60;;
13067;SDS011;6600;51.362;6.686;2022-08-01T12:54:22;0.57;;;0.57;;
13067;SDS011;6600;51.362;6.686;2022-08-01T12:56:50;0.57;;;0.57;;
13067;SDS011;6600;51.362;6.686;2022-08-01T12:59:27;0.70;;;0.53;;
13067;SDS011;6600;51.362;6.686;2022-08-01T13:01:54;0.60;;;0.40;;
13067;SDS011;6600;51.362;6.686;2022-08-01T13:04:21;0.53;;;0.53;;
13067;SDS011;6600;51.362;6.686;2022-08-01T13:06:47;0.50;;;0.50;;
13067;SDS011;6600;51.362;6.686;2022-08-01T13:09:17;0.60;;;0.60;;
13067;SDS011;6600;51.362;6.686;2022-08-01T13:11:43;1.47;;;0.57;;
13067;SDS011;6600;51.362;6.686;2022-08-01T13:14:08;0.60;;;0.60;;
13067;SDS011;6600;51.362;6.686;2022-08-01T13:16:44;0.70;;;0.70;;
13067;SDS011;6600;51.362;6.686;2022-08-01T13:19:11;0.57;;;0.57;;
13067;SDS011;6600;51.362;6.686;2022-08-01T13:21:36;0.60;;;0.60;;
13067;SDS011;6600;51.362;6.686;2022-08-01T13:24:06;0.70;;;0.70;;
13067;SDS011;6600;51.362;6.686;2022-08-01T13:26:42;0.80;;;0.80;;
13067;SDS011;6600;51.362;6.686;2022-08-01T13:29:17;0.77;;;0.77;;
13067;SDS011;6600;51.362;6.686;2022-08-01T13:31:53;0.83;;;0.83;;
13067;SDS011;6600;51.362;6.686;2022-08-01T13:34:18;0.53;;;0.53;;
13067;SDS011;6600;51.362;6.686;2022-08-01T13:36:55;0.70;;;0.70;;
13067;SDS011;6600;51.362;6.686;2022-08-01T13:39:20;0.80;;;0.80;;
13067;SDS011;6600;51.362;6.686;2022-08-01T13:42:04;0.60;;;0.60;;
13067;SDS011;6600;51.362;6.686;2022-08-01T13:44:30;0.70;;;0.70;;
13067;SDS011;6600;51.362;6.686;2022-08-01T13:46:55;0.60;;;0.60;;
13067;SDS011;6600;51.362;6.686;2022-08-01T13:49:21;0.70;;;0.70;;
13067;SDS011;6600;51.362;6.686;2022-08-01T13:51:46;0.83;;;0.60;;
13067;SDS011;6600;51.362;6.686;2022-08-01T13:54:12;0.90;;;0.90;;
13067;SDS011;6600;51.362;6.686;2022-08-01T13:56:37;1.23;;;1.00;;
13067;SDS011;6600;51.362;6.686;2022-08-01T13:59:03;0.80;;;0.80;;
13067;SDS011;6600;51.362;6.686;2022-08-01T14:01:28;0.80;;;0.80;;
13067;SDS011;6600;51.362;6.686;2022-08-01T14:03:54;0.80;;;0.80;;
13067;SDS011;6600;51.362;6.686;2022-08-01T14:06:19;0.70;;;0.70;;
13067;SDS011;6600;51.362;6.686;2022-08-01T14:08:47;0.73;;;0.73;;
13067;SDS011;6600;51.362;6.686;2022-08-01T14:11:12;0.83;;;0.80;;
13067;SDS011;6600;51.362;6.686;2022-08-01T14:13:38;0.80;;;0.80;;
13067;SDS011;6600;51.362;6.686;2022-08-01T14:16:05;1.50;;;0.93;;
13067;SDS011;6600;51.362;6.686;2022-08-01T14:18:31;0.90;;;0.90;;
13067;SDS011;6600;51.362;6.686;2022-08-01T14:20:57;1.10;;;1.00;;
13067;SDS011;6600;51.362;6.686;2022-08-01T14:23:22;0.60;;;0.60;;
13067;SDS011;6600;51.362;6.686;2022-08-01T14:25:47;0.80;;;0.80;;
13067;SDS011;6600;51.362;6.686;2022-08-01T14:28:13;0.80;;;0.70;;
13067;SDS011;6600;51.362;6.686;2022-08-01T14:30:38;0.60;;;0.60;;
13067;SDS011;6600;51.362;6.686;2022-08-01T14:33:06;0.87;;;0.60;;
13067;SDS011;6600;51.362;6.686;2022-08-01T14:35:31;0.93;;;0.70;;
13067;SDS011;6600;51.362;6.686;2022-08-01T14:37:56;0.70;;;0.70;;
13067;SDS011;6600;51.362;6.686;2022-08-01T14:40:22;0.70;;;0.70;;
13067;SDS011;6600;51.362;6.686;2022-08-01T14:42:47;0.83;;;0.83;;
13067;SDS011;6600;51.362;6.686;2022-08-01T14:45:14;0.87;;;0.87;;
13067;SDS011;6600;51.362;6.686;2022-08-01T14:47:40;0.83;;;0.83;;
13067;SDS011;6600;51.362;6.686;2022-08-01T14:50:11;0.90;;;0.90;;
13067;SDS011;6600;51.362;6.686;2022-08-01T14:52:38;0.67;;;0.67;;
13067;SDS011;6600;51.362;6.686;2022-08-01T14:55:05;0.83;;;0.80;;
13067;SDS011;6600;51.362;6.686;2022-08-01T14:57:31;0.43;;;0.43;;
13067;SDS011;6600;51.362;6.686;2022-08-01T14:59:57;0.57;;;0.57;;
13067;SDS011;6600;51.362;6.686;2022-08-01T15:02:22;0.83;;;0.83;;
13067;SDS011;6600;51.362;6.686;2022-08-01T15:04:48;0.73;;;0.73;;
13067;SDS011;6600;51.362;6.686;2022-08-01T15:07:14;0.50;;;0.50;;
13067;SDS011;6600;51.362;6.686;2022-08-01T15:09:41;0.63;;;0.63;;
13067;SDS011;6600;51.362;6.686;2022-08-01T15:12:07;0.50;;;0.50;;
13067;SDS011;6600;51.362;6.686;2022-08-01T15:14:33;1.20;;;0.53;;
13067;SDS011;6600;51.362;6.686;2022-08-01T15:17:21;0.93;;;0.70;;
13067;SDS011;6600;51.362;6.686;2022-08-01T15:19:47;0.57;;;0.50;;
13067;SDS011;6600;51.362;6.686;2022-08-01T15:22:14;0.93;;;0.80;;
13067;SDS011;6600;51.362;6.686;2022-08-01T15:24:39;0.80;;;0.50;;
13067;SDS011;6600;51.362;6.686;2022-08-01T15:27:05;1.30;;;0.63;;
13067;SDS011;6600;51.362;6.686;2022-08-01T15:29:31;0.80;;;0.80;;
13067;SDS011;6600;51.362;6.686;2022-08-01T15:31:58;0.83;;;0.63;;
13067;SDS011;6600;51.362;6.686;2022-08-01T15:34:23;0.50;;;0.50;;
13067;SDS011;6600;51.362;6.686;2022-08-01T15:36:50;0.63;;;0.63;;
13067;SDS011;6600;51.362;6.686;2022-08-01T15:39:15;0.60;;;0.60;;
13067;SDS011;6600;51.362;6.686;2022-08-01T15:41:41;0.87;;;0.87;;
13067;SDS011;6600;51.362;6.686;2022-08-01T15:44:06;1.17;;;0.87;;
13067;SDS011;6600;51.362;6.686;2022-08-01T15:46:32;0.60;;;0.60;;
13067;SDS011;6600;51.362;6.686;2022-08-01T15:48:58;0.70;;;0.63;;
13067;SDS011;6600;51.362;6.686;2022-08-01T15:51:28;0.60;;;0.60;;